You are not logged in, Click here to log in
ICAO: UEEE Country: 雅庫茨克,俄羅斯。它有一條跑道(較舊的跑道作為廢棄飛機的停車場),每小時可容納700名乘客
Latitude: 62.0933 Longitude: 129.771
Total Arrivals: 1 Total Departures: 0
Latest Arrival: GC7 (UHPP-UEEE)KE. CHIH-HAO Latest Departure: (-).
Scenery:
METAR : UEEE 151630Z 33001MPS CAVOK M00/M05 Q1003 R23L/09//60 NOSIG RMK QFE744

雅庫茨克機場 YKS